createdAt,value
2019-06-15T07:08:50.341Z,21.93
2019-06-15T07:15:50.998Z,21.57
2019-06-15T07:18:25.841Z,20.87
2019-06-15T07:21:09.561Z,21.33
2019-06-15T07:23:42.547Z,20.20
2019-06-15T07:29:10.728Z,21.20
2019-06-15T07:39:36.136Z,20.43
2019-06-15T07:47:38.030Z,18.70
2019-06-15T07:49:37.749Z,19.10
2019-06-15T07:56:18.409Z,20.33
2019-06-15T07:59:29.472Z,17.70
2019-06-15T08:18:51.853Z,16.57
2019-06-15T08:21:43.770Z,18.13
2019-06-15T08:24:15.737Z,17.27
2019-06-15T08:31:51.293Z,15.50
2019-06-15T08:46:17.037Z,12.30
2019-06-15T08:49:08.621Z,11.93
2019-06-15T08:52:32.678Z,13.00
2019-06-15T08:58:19.873Z,11.20
2019-06-15T09:00:53.661Z,14.90
2019-06-15T09:08:25.212Z,13.17
2019-06-15T09:15:05.411Z,11.70
2019-06-15T09:18:06.658Z,13.77
2019-06-15T09:20:42.091Z,11.70
2019-06-15T09:23:22.166Z,12.50
2019-06-15T09:30:06.559Z,12.87
2019-06-15T09:33:11.855Z,13.07
2019-06-15T09:36:09.437Z,19.50
2019-06-15T09:41:43.146Z,13.80
2019-06-15T09:50:42.304Z,11.53
2019-06-15T09:53:13.533Z,12.17
2019-06-15T09:55:59.470Z,12.10
2019-06-15T09:58:54.651Z,15.90
2019-06-15T10:01:25.273Z,16.37
2019-06-15T10:03:57.763Z,16.00
2019-06-15T10:06:29.336Z,16.23
2019-06-15T10:09:03.409Z,12.37
2019-06-15T10:11:36.849Z,11.60
2019-06-15T10:14:09.259Z,17.23
2019-06-15T10:17:08.844Z,13.97
2019-06-15T10:20:33.750Z,12.43
2019-06-15T10:23:03.469Z,11.47
2019-06-15T10:25:33.652Z,11.07
2019-06-15T10:28:06.917Z,12.37
2019-06-15T10:34:32.997Z,15.77
2019-06-15T10:48:48.404Z,13.17
2019-06-15T10:51:55.574Z,12.13
2019-06-15T10:58:35.707Z,8.90
2019-06-15T11:02:16.748Z,17.67
2019-06-15T11:04:50.282Z,7.80
2019-06-15T11:14:46.324Z,11.57
2019-06-15T11:21:55.360Z,8.83
2019-06-15T11:24:46.687Z,8.80
2019-06-15T11:27:42.461Z,9.83
2019-06-15T11:31:09.410Z,8.57
2019-06-15T11:33:39.595Z,7.97
2019-06-15T11:40:24.583Z,8.57
2019-06-15T11:43:02.443Z,7.53
2019-06-15T11:46:03.191Z,11.53
2019-06-15T11:48:42.907Z,11.17
2019-06-15T11:51:20.869Z,9.40
2019-06-15T11:57:11.973Z,9.67
2019-06-15T12:03:39.054Z,8.00
2019-06-15T12:06:59.327Z,7.90
2019-06-15T12:34:22.789Z,8.47
2019-06-15T12:37:05.752Z,12.70
2019-06-15T12:40:13.426Z,8.07
2019-06-15T12:57:29.701Z,9.40
2019-06-15T13:06:47.424Z,8.97
2019-06-15T13:09:33.945Z,8.80
2019-06-15T13:36:03.556Z,8.57
2019-06-15T13:38:34.439Z,7.97
2019-06-15T13:41:04.214Z,7.90
2019-06-15T13:43:36.342Z,9.80
2019-06-15T13:46:07.003Z,11.83
2019-06-15T13:48:38.251Z,14.30
2019-06-15T13:51:28.531Z,12.57
2019-06-15T13:54:04.093Z,10.33
2019-06-15T13:56:37.201Z,8.30
2019-06-15T13:59:06.948Z,9.17
2019-06-15T14:01:44.981Z,9.70
2019-06-15T14:04:22.352Z,9.47
2019-06-15T14:11:07.683Z,9.70
2019-06-15T14:13:39.392Z,9.60
2019-06-15T14:16:13.495Z,10.97
2019-06-15T14:18:50.986Z,13.10
2019-06-15T14:21:53.847Z,12.20
2019-06-15T14:24:24.478Z,11.00
2019-06-15T14:27:00.388Z,10.27
2019-06-15T14:29:34.011Z,11.67
2019-06-15T14:32:07.882Z,12.30
2019-06-15T14:34:38.499Z,9.23
2019-06-15T14:37:24.663Z,13.40
2019-06-15T14:39:54.402Z,13.50
2019-06-15T14:42:24.063Z,9.70
2019-06-15T14:44:53.913Z,10.63
2019-06-15T14:47:25.360Z,10.73
2019-06-15T14:49:56.301Z,11.17
2019-06-15T14:52:29.415Z,10.93
2019-06-15T14:54:59.067Z,17.93
2019-06-15T14:57:28.827Z,9.43
2019-06-15T15:00:04.713Z,13.70
2019-06-15T15:02:29.865Z,10.83
2019-06-15T15:04:59.536Z,11.33
2019-06-15T15:07:36.750Z,12.20
2019-06-15T15:10:07.234Z,12.23
2019-06-15T15:12:41.441Z,11.20
2019-06-15T15:15:11.653Z,11.30
2019-06-15T15:17:41.242Z,11.47
2019-06-15T15:20:11.086Z,17.00
2019-06-15T15:22:46.539Z,11.03
2019-06-15T15:25:16.980Z,11.40
2019-06-15T15:27:47.018Z,13.30
2019-06-15T15:30:27.125Z,12.17
2019-06-15T15:32:57.145Z,17.77
2019-06-15T15:35:27.402Z,13.57
2019-06-15T15:37:57.244Z,12.17
2019-06-15T15:40:27.364Z,14.87
2019-06-15T15:43:03.631Z,11.70
2019-06-15T15:45:36.767Z,13.57
2019-06-15T15:48:06.799Z,10.33
2019-06-15T15:50:37.294Z,14.00
2019-06-15T15:53:09.665Z,12.10
2019-06-15T15:55:43.861Z,13.10
2019-06-15T15:58:13.810Z,17.50
2019-06-15T16:00:43.489Z,14.70
2019-06-15T16:03:15.995Z,16.02
2019-06-15T16:05:48.858Z,14.33
2019-06-15T16:08:28.731Z,11.85
2019-06-15T16:14:18.927Z,14.25
2019-06-15T16:16:57.185Z,13.08
2019-06-15T16:19:49.647Z,18.95
2019-06-15T16:22:21.677Z,13.10
2019-06-15T16:24:56.431Z,9.30
2019-06-15T16:27:36.874Z,10.53
2019-06-15T16:30:07.735Z,15.50
2019-06-15T16:32:41.171Z,11.35
2019-06-15T16:35:16.608Z,13.45
2019-06-15T16:37:47.080Z,11.93
2019-06-15T16:41:09.780Z,13.03
2019-06-15T16:43:41.383Z,20.02
2019-06-15T16:49:28.042Z,20.02
2019-06-15T16:51:57.155Z,13.88
2019-06-15T16:54:27.181Z,18.70
2019-06-15T16:56:57.165Z,11.55
2019-06-15T16:59:41.448Z,14.28
2019-06-15T17:02:11.106Z,9.28
2019-06-15T17:04:46.548Z,13.62
2019-06-15T17:07:17.885Z,16.35
2019-06-15T17:09:47.485Z,13.58
2019-06-15T17:12:17.204Z,12.73
2019-06-15T17:14:46.897Z,8.15
2019-06-15T17:17:17.348Z,9.88
2019-06-15T17:19:48.330Z,10.18
2019-06-15T17:22:21.482Z,9.73
2019-06-15T17:24:51.426Z,14.75
2019-06-15T17:27:21.163Z,10.95
2019-06-15T17:29:51.004Z,6.87
2019-06-15T17:32:20.623Z,8.95
2019-06-15T17:34:50.274Z,13.88
2019-06-15T17:37:19.964Z,11.75
2019-06-15T17:39:49.534Z,12.95
2019-06-15T17:42:19.189Z,12.73
2019-06-15T17:44:48.759Z,11.43
2019-06-15T17:47:18.438Z,7.20
2019-06-15T17:49:48.006Z,10.65
2019-06-15T17:52:17.717Z,13.62
2019-06-15T17:54:47.652Z,13.15
2019-06-15T17:57:17.255Z,14.05
2019-06-15T17:59:47.151Z,15.18
2019-06-15T18:02:17.304Z,13.40
2019-06-15T18:04:47.531Z,11.73
2019-06-15T18:07:17.369Z,12.70
2019-06-15T18:09:48.577Z,10.32
2019-06-15T18:12:28.265Z,7.50
2019-06-15T18:15:00.169Z,9.63
2019-06-15T18:17:31.462Z,9.80
2019-06-15T18:20:01.967Z,10.90
2019-06-15T18:22:33.284Z,11.10
2019-06-15T18:25:02.894Z,10.80
2019-06-15T18:27:32.478Z,12.35
2019-06-15T18:30:02.117Z,11.33
2019-06-15T18:32:31.790Z,14.30
2019-06-15T18:35:01.372Z,12.10
2019-06-15T18:37:30.932Z,9.00
2019-06-15T18:40:00.525Z,10.55
2019-06-15T18:42:30.128Z,13.53
2019-06-15T18:44:59.738Z,9.13
2019-06-15T18:47:30.427Z,12.50
2019-06-15T18:50:00.056Z,9.38
2019-06-15T18:52:30.447Z,10.38
2019-06-15T18:55:00.047Z,14.87
2019-06-15T18:57:29.602Z,13.08
2019-06-15T18:59:59.235Z,11.18
2019-06-15T19:02:36.115Z,11.55
2019-06-15T19:05:06.542Z,13.98
2019-06-15T19:07:38.097Z,13.10
2019-06-15T19:13:51.919Z,12.50
2019-06-15T19:16:24.684Z,11.20
2019-06-15T19:18:59.038Z,10.35
2019-06-15T19:21:59.530Z,12.93
2019-06-15T19:25:16.125Z,7.75
2019-06-15T19:28:33.175Z,12.23
2019-06-15T19:43:06.458Z,14.33
2019-06-15T19:45:37.113Z,14.98
2019-06-15T19:48:11.736Z,13.78
2019-06-15T19:50:42.331Z,8.68
2019-06-15T19:53:30.858Z,8.05
2019-06-15T20:05:03.765Z,10.80
2019-06-15T20:07:36.688Z,9.80
2019-06-15T20:10:10.593Z,12.85
2019-06-15T20:12:46.609Z,12.55
2019-06-15T20:15:16.931Z,10.00
2019-06-15T20:17:49.156Z,10.48
2019-06-15T20:20:18.857Z,12.95
2019-06-15T20:22:49.475Z,8.00
2019-06-15T20:25:58.909Z,10.03
2019-06-15T20:28:56.427Z,9.98
2019-06-15T20:31:47.037Z,9.88
2019-06-15T20:35:16.169Z,14.80
2019-06-15T20:37:31.949Z,14.65
2019-06-15T20:40:23.143Z,9.28
2019-06-15T20:43:13.460Z,9.65
2019-06-15T20:46:48.629Z,11.85
2019-06-15T21:12:46.895Z,12.75
2019-06-15T21:15:19.130Z,13.40
2019-06-15T21:17:50.715Z,12.10
2019-06-15T21:20:21.998Z,15.30
2019-06-15T21:22:51.803Z,15.03
2019-06-15T21:25:22.279Z,14.28
2019-06-15T21:27:52.011Z,11.45
2019-06-15T21:30:40.728Z,13.38
2019-06-15T21:33:10.497Z,15.90
2019-06-15T21:35:59.658Z,13.98
2019-06-15T21:41:38.132Z,12.88
2019-06-15T21:44:07.779Z,82.97
2019-06-15T21:46:37.482Z,126.87
2019-06-15T21:49:10.326Z,82.60
2019-06-15T21:51:56.466Z,19.85
2019-06-15T21:54:57.446Z,17.07
2019-06-15T21:57:28.527Z,11.83
2019-06-15T21:59:59.047Z,14.90
2019-06-15T22:02:28.910Z,17.10
2019-06-15T22:04:58.724Z,14.47
2019-06-15T22:08:41.119Z,16.60
2019-06-15T22:11:10.851Z,12.53
2019-06-15T22:16:53.130Z,16.40
2019-06-15T22:19:26.049Z,17.90
2019-06-15T22:21:55.069Z,15.85
2019-06-15T22:24:26.797Z,15.32
2019-06-15T22:26:56.394Z,19.40
2019-06-15T22:29:27.417Z,17.92
2019-06-15T22:32:12.615Z,18.17
2019-06-15T22:34:46.906Z,15.83
